Time;durP1;ratioP1;P1;durP2;ratioP2;P2;SDS_P1;SDS_P2;PMS_P1;PMS_P2;Temp;Humidity;BMP_temperature;BMP_pressure;BME280_temperature;BME280_humidity;BME280_pressure;Samples;Min_cycle;Max_cycle;Signal;HPM_P1;HPM_P2
2022/09/14 00:00:51;;;;;;;0.83;0.30;;;18.60;99.90;;;;;;5080948;28;20193;-78
2022/09/14 00:03:18;;;;;;;0.20;0.20;;;18.70;99.90;;;;;;5074379;28;20280;-79
2022/09/14 00:05:44;;;;;;;0.30;0.30;;;18.60;99.90;;;;;;5072178;28;20192;-79
2022/09/14 00:08:10;;;;;;;0.30;0.30;;;18.70;99.90;;;;;;5070157;28;20254;-78
2022/09/14 00:10:43;;;;;;;0.33;0.33;;;18.40;99.90;;;;;;5073321;28;21326;-79
2022/09/14 00:13:09;;;;;;;0.20;0.20;;;18.20;99.90;;;;;;5074913;28;20218;-79
2022/09/14 00:15:37;;;;;;;0.40;0.40;;;18.10;99.90;;;;;;5072621;28;20191;-78
2022/09/14 00:18:05;;;;;;;0.90;0.60;;;18.10;99.90;;;;;;5072500;28;20189;-78
2022/09/14 00:20:32;;;;;;;3.07;0.33;;;18.10;99.90;;;;;;5072459;28;20183;-79
2022/09/14 00:22:58;;;;;;;0.37;0.37;;;18.00;99.90;;;;;;5075558;28;20993;-79
2022/09/14 00:25:25;;;;;;;0.30;0.30;;;18.10;99.90;;;;;;5071566;28;20279;-78
2022/09/14 00:27:51;;;;;;;0.23;0.23;;;18.10;99.90;;;;;;5073525;28;20191;-79
2022/09/14 00:30:17;;;;;;;5.20;0.40;;;18.00;99.90;;;;;;5072914;28;20195;-78
2022/09/14 00:32:42;;;;;;;0.20;0.20;;;17.90;99.90;;;;;;5072576;28;20207;-79
2022/09/14 00:35:08;;;;;;;0.87;0.87;;;17.90;99.90;;;;;;5073456;28;20181;-78
2022/09/14 00:37:33;;;;;;;0.20;0.20;;;18.00;99.90;;;;;;5070694;28;20558;-78
2022/09/14 00:39:59;;;;;;;0.30;0.30;;;18.20;99.90;;;;;;5071688;28;20237;-79
2022/09/14 00:42:25;;;;;;;0.73;0.73;;;18.40;99.90;;;;;;5070304;28;20236;-79
2022/09/14 00:44:51;;;;;;;0.60;0.60;;;18.50;99.90;;;;;;5071229;28;20191;-79
2022/09/14 00:47:17;;;;;;;0.40;0.30;;;18.60;99.90;;;;;;5071902;28;20950;-81
2022/09/14 00:49:43;;;;;;;0.37;0.37;;;18.60;99.90;;;;;;5076839;28;20301;-81
2022/09/14 00:52:25;;;;;;;0.10;0.10;;;18.70;99.90;;;;;;5074300;28;20224;-81
2022/09/14 00:54:57;;;;;;;0.33;0.33;;;18.70;99.90;;;;;;5084162;28;20177;-81
2022/09/14 00:57:24;;;;;;;0.23;0.23;;;18.70;99.90;;;;;;5077415;28;20180;-81
2022/09/14 00:59:51;;;;;;;0.47;0.47;;;18.70;99.90;;;;;;5074144;28;20194;-81
2022/09/14 01:02:19;;;;;;;0.20;0.20;;;18.70;99.90;;;;;;5074327;28;20204;-82
2022/09/14 01:04:46;;;;;;;0.60;0.30;;;18.70;99.90;;;;;;5072398;28;20280;-81
2022/09/14 01:07:26;;;;;;;0.20;0.20;;;18.80;99.90;;;;;;5073761;28;20214;-81
2022/09/14 01:09:54;;;;;;;0.27;0.27;;;18.90;99.90;;;;;;5082700;28;20212;-81
2022/09/14 01:12:34;;;;;;;0.30;0.30;;;18.80;99.90;;;;;;5074683;28;20278;-81
2022/09/14 01:15:26;;;;;;;0.60;0.47;;;18.80;99.90;;;;;;5074555;28;20678;-81
2022/09/14 01:18:08;;;;;;;0.10;0.10;;;18.80;99.90;;;;;;5076245;28;20226;-81
2022/09/14 01:20:33;;;;;;;0.30;0.30;;;18.80;99.90;;;;;;5077187;28;20191;-81
2022/09/14 01:23:30;;;;;;;0.20;0.20;;;18.90;99.90;;;;;;5077880;28;20204;-81
2022/09/14 01:26:08;;;;;;;0.40;0.40;;;18.90;99.90;;;;;;5076962;28;20187;-82
2022/09/14 01:28:53;;;;;;;0.30;0.30;;;18.80;99.90;;;;;;5081639;28;20275;-81
2022/09/14 01:31:38;;;;;;;0.30;0.30;;;18.50;99.90;;;;;;5093712;27;20203;-81
2022/09/14 01:34:11;;;;;;;0.40;0.40;;;18.30;99.90;;;;;;5076358;28;20200;-81
2022/09/14 01:36:41;;;;;;;0.80;0.40;;;18.30;99.90;;;;;;5076938;28;21872;-81
2022/09/14 01:39:08;;;;;;;0.30;0.30;;;18.40;99.90;;;;;;5077741;28;20177;-81
2022/09/14 01:41:35;;;;;;;2.40;0.83;;;18.60;99.90;;;;;;5077342;28;20875;-81
2022/09/14 01:44:12;;;;;;;0.20;0.20;;;18.60;99.90;;;;;;5078074;28;20205;-81
2022/09/14 01:46:44;;;;;;;0.27;0.27;;;18.70;99.90;;;;;;5076428;28;20183;-81
2022/09/14 01:49:19;;;;;;;0.23;0.23;;;18.60;99.90;;;;;;5077157;28;20212;-79
2022/09/14 01:51:57;;;;;;;0.47;0.47;;;18.50;99.90;;;;;;5071333;28;20201;-79
2022/09/14 01:54:33;;;;;;;0.50;0.30;;;18.50;99.90;;;;;;5071962;28;20230;-79
2022/09/14 01:57:16;;;;;;;0.40;0.40;;;18.70;99.90;;;;;;5071861;28;20176;-79
2022/09/14 01:59:44;;;;;;;0.20;0.20;;;18.70;99.90;;;;;;5071761;28;20183;-79
2022/09/14 02:02:20;;;;;;;0.20;0.20;;;18.50;99.90;;;;;;5075026;28;20212;-79
2022/09/14 02:04:56;;;;;;;0.50;0.50;;;18.40;99.90;;;;;;5074671;28;20239;-78
2022/09/14 02:07:22;;;;;;;0.70;0.70;;;18.20;99.90;;;;;;5071164;28;20216;-79
2022/09/14 02:09:50;;;;;;;0.50;0.50;;;18.00;99.90;;;;;;5073428;28;20292;-79
2022/09/14 02:12:16;;;;;;;3.70;0.87;;;17.90;99.90;;;;;;5073181;28;20217;-79
2022/09/14 02:14:43;;;;;;;0.13;0.13;;;17.90;99.90;;;;;;5075321;28;20181;-79
2022/09/14 02:17:09;;;;;;;0.30;0.30;;;17.90;99.90;;;;;;5073871;28;20176;-79
2022/09/14 02:19:42;;;;;;;0.30;0.30;;;17.90;99.90;;;;;;5071980;28;20712;-79
2022/09/14 02:22:07;;;;;;;0.10;0.10;;;17.90;99.90;;;;;;5073541;28;20290;-79
2022/09/14 02:24:34;;;;;;;0.93;0.50;;;18.00;99.90;;;;;;5072259;28;20197;-78
2022/09/14 02:27:01;;;;;;;0.30;0.30;;;17.90;99.90;;;;;;5075029;28;20195;-79
2022/09/14 02:29:26;;;;;;;0.60;0.60;;;17.90;99.90;;;;;;5073561;28;20188;-79
2022/09/14 02:31:57;;;;;;;0.40;0.40;;;17.90;99.90;;;;;;5074787;28;20208;-79
2022/09/14 02:34:37;;;;;;;0.30;0.30;;;17.90;99.90;;;;;;5074188;28;20183;-78
2022/09/14 02:37:30;;;;;;;0.20;0.20;;;17.90;99.90;;;;;;5073869;28;20181;-79
2022/09/14 02:40:03;;;;;;;0.30;0.30;;;18.00;99.90;;;;;;5075035;28;20173;-79
2022/09/14 02:42:59;;;;;;;0.20;0.20;;;18.00;99.90;;;;;;5077025;28;20208;-81
2022/09/14 02:45:37;;;;;;;0.23;0.23;;;17.90;99.90;;;;;;5075792;28;20175;-81
2022/09/14 02:48:17;;;;;;;0.40;0.40;;;17.80;99.90;;;;;;5078073;28;20559;-81
2022/09/14 02:51:05;;;;;;;0.27;0.27;;;17.90;99.90;;;;;;5095771;27;20210;-82
2022/09/14 02:53:52;;;;;;;0.20;0.20;;;17.90;99.90;;;;;;5079094;28;20213;-81
2022/09/14 02:56:18;;;;;;;0.17;0.17;;;18.00;99.90;;;;;;5074408;28;20204;-81
2022/09/14 02:58:44;;;;;;;0.20;0.20;;;18.20;99.90;;;;;;5075094;28;20176;-82
2022/09/14 03:01:18;;;;;;;0.30;0.30;;;18.30;99.90;;;;;;5072407;28;20616;-82
2022/09/14 03:03:44;;;;;;;0.20;0.20;;;18.30;99.90;;;;;;5072768;28;20267;-81
2022/09/14 03:06:09;;;;;;;0.27;0.27;;;18.40;99.90;;;;;;5076712;28;20246;-82
2022/09/14 03:08:35;;;;;;;0.57;0.37;;;18.40;99.90;;;;;;5077556;28;20216;-82
2022/09/14 03:11:01;;;;;;;0.83;0.83;;;18.20;99.90;;;;;;5077968;28;20191;-82
2022/09/14 03:13:27;;;;;;;0.40;0.37;;;18.10;99.90;;;;;;5076979;28;20224;-81
2022/09/14 03:15:52;;;;;;;2.70;0.70;;;18.00;99.90;;;;;;5076003;28;20192;-82
2022/09/14 03:18:18;;;;;;;0.30;0.30;;;17.90;99.90;;;;;;5078727;28;20189;-81
2022/09/14 03:20:44;;;;;;;0.70;0.70;;;17.90;99.90;;;;;;5076084;28;20195;-82
2022/09/14 03:23:10;;;;;;;0.20;0.20;;;17.80;99.90;;;;;;5074205;28;20226;-81
2022/09/14 03:25:38;;;;;;;0.53;0.53;;;17.80;99.90;;;;;;5076239;28;20266;-82
2022/09/14 03:28:05;;;;;;;0.27;0.27;;;17.80;99.90;;;;;;5077392;28;20188;-82
2022/09/14 03:30:31;;;;;;;0.30;0.30;;;17.90;99.90;;;;;;5075065;28;20255;-81
2022/09/14 03:32:58;;;;;;;0.10;0.10;;;17.90;99.90;;;;;;5075932;28;20276;-82
2022/09/14 03:35:24;;;;;;;0.40;0.30;;;18.00;99.90;;;;;;5075622;28;20616;-82
2022/09/14 03:37:49;;;;;;;0.67;0.30;;;17.90;99.90;;;;;;5070461;28;20753;-82
2022/09/14 03:40:16;;;;;;;0.50;0.50;;;17.90;99.90;;;;;;5077560;28;20185;-82
2022/09/14 03:42:43;;;;;;;0.20;0.20;;;17.90;99.90;;;;;;5076094;28;20566;-82
2022/09/14 03:45:10;;;;;;;1.93;0.73;;;17.90;99.90;;;;;;5076577;28;20224;-82
2022/09/14 03:47:36;;;;;;;0.20;0.20;;;17.90;99.90;;;;;;5078479;28;20188;-82
2022/09/14 03:50:02;;;;;;;3.87;0.37;;;17.80;99.90;;;;;;5079290;28;20227;-82
2022/09/14 03:52:28;;;;;;;0.63;0.40;;;17.70;99.90;;;;;;5073940;28;20239;-82
2022/09/14 03:54:53;;;;;;;0.50;0.40;;;17.70;99.90;;;;;;5079000;28;20192;-82
2022/09/14 03:57:19;;;;;;;0.30;0.30;;;17.70;99.90;;;;;;5074404;28;20216;-82
2022/09/14 03:59:45;;;;;;;0.30;0.30;;;17.70;99.90;;;;;;5076693;28;20177;-82
2022/09/14 04:02:10;;;;;;;0.20;0.20;;;17.70;99.90;;;;;;5076154;28;20703;-82
2022/09/14 04:04:36;;;;;;;0.53;0.53;;;17.70;99.90;;;;;;5075424;28;20195;-82
2022/09/14 04:07:01;;;;;;;0.60;0.40;;;17.80;99.90;;;;;;5076265;28;20180;-82
2022/09/14 04:09:27;;;;;;;0.37;0.37;;;18.00;99.90;;;;;;5077063;28;20177;-82
2022/09/14 04:11:52;;;;;;;0.30;0.30;;;18.00;99.90;;;;;;5075646;28;20209;-82
2022/09/14 04:14:18;;;;;;;0.43;0.43;;;17.90;99.90;;;;;;5075388;28;20807;-81
2022/09/14 04:16:44;;;;;;;0.27;0.27;;;18.00;99.90;;;;;;5078819;28;20196;-82
2022/09/14 04:19:11;;;;;;;0.30;0.30;;;18.00;99.90;;;;;;5077998;28;20223;-79
2022/09/14 04:21:36;;;;;;;0.23;0.23;;;18.00;99.90;;;;;;5072655;28;20189;-79
2022/09/14 04:24:02;;;;;;;0.53;0.53;;;18.00;99.90;;;;;;5071463;28;20210;-79
2022/09/14 04:26:29;;;;;;;0.33;0.33;;;18.00;99.90;;;;;;5072420;28;20235;-79
2022/09/14 04:28:55;;;;;;;0.30;0.30;;;18.00;99.90;;;;;;5073812;28;20249;-79
2022/09/14 04:31:22;;;;;;;0.47;0.47;;;17.90;99.90;;;;;;5071841;28;20236;-79
2022/09/14 04:33:49;;;;;;;0.50;0.50;;;17.90;99.90;;;;;;5072761;28;20200;-79
2022/09/14 04:36:18;;;;;;;0.20;0.20;;;17.90;99.90;;;;;;5074023;28;20187;-79
2022/09/14 04:38:45;;;;;;;0.77;0.77;;;18.00;99.90;;;;;;5073451;28;20185;-80
2022/09/14 04:41:19;;;;;;;0.20;0.20;;;18.20;99.90;;;;;;5072929;28;20176;-79
2022/09/14 04:43:45;;;;;;;0.33;0.33;;;18.20;99.90;;;;;;5072793;28;20246;-81
2022/09/14 04:46:13;;;;;;;0.37;0.37;;;18.30;99.90;;;;;;5074984;28;20195;-80
2022/09/14 04:48:39;;;;;;;0.50;0.50;;;18.50;99.90;;;;;;5073618;28;20194;-81
2022/09/14 04:51:07;;;;;;;0.10;0.10;;;18.60;99.90;;;;;;5080806;28;20208;-80
2022/09/14 04:53:34;;;;;;;0.30;0.30;;;18.60;99.90;;;;;;5078473;28;20232;-79
2022/09/14 04:56:01;;;;;;;1.23;0.60;;;18.70;99.90;;;;;;5074541;28;20184;-80
2022/09/14 04:58:27;;;;;;;0.57;0.40;;;18.70;99.90;;;;;;5074834;28;20719;-80
2022/09/14 05:01:00;;;;;;;0.37;0.30;;;18.80;99.90;;;;;;5075957;28;20180;-78
2022/09/14 05:03:26;;;;;;;0.23;0.23;;;18.80;99.90;;;;;;5076966;28;20223;-80
2022/09/14 05:05:51;;;;;;;0.20;0.20;;;18.80;99.90;;;;;;5073769;28;21223;-79
2022/09/14 05:08:17;;;;;;;0.20;0.20;;;18.70;99.90;;;;;;5074158;28;20246;-79
2022/09/14 05:10:42;;;;;;;0.97;0.97;;;18.80;99.90;;;;;;5073680;28;20180;-79
2022/09/14 05:13:08;;;;;;;0.30;0.30;;;18.80;99.90;;;;;;5074011;28;20997;-79
2022/09/14 05:15:33;;;;;;;0.87;0.50;;;18.90;99.90;;;;;;5074595;28;20193;-79
2022/09/14 05:17:59;;;;;;;1.87;1.30;;;18.90;99.90;;;;;;5074271;28;20220;-78
2022/09/14 05:20:24;;;;;;;0.30;0.30;;;18.80;99.90;;;;;;5074838;28;20181;-80
2022/09/14 05:22:50;;;;;;;0.30;0.30;;;18.80;99.90;;;;;;5073502;28;20728;-79
2022/09/14 05:25:16;;;;;;;0.90;0.90;;;18.90;99.90;;;;;;5073156;28;20184;-79
2022/09/14 05:27:41;;;;;;;0.43;0.43;;;18.90;99.90;;;;;;5071907;28;20188;-78
2022/09/14 05:30:08;;;;;;;1.37;0.53;;;18.90;99.90;;;;;;5077753;28;20177;-79
2022/09/14 05:32:33;;;;;;;0.40;0.40;;;19.00;99.90;;;;;;5072983;28;20209;-79
2022/09/14 05:34:59;;;;;;;0.53;0.50;;;19.00;99.90;;;;;;5072202;28;20535;-79
2022/09/14 05:37:24;;;;;;;0.40;0.40;;;19.10;99.90;;;;;;5074047;28;20543;-79
2022/09/14 05:39:50;;;;;;;0.80;0.80;;;19.10;99.90;;;;;;5073857;28;20222;-79
2022/09/14 05:42:15;;;;;;;0.63;0.63;;;19.00;99.90;;;;;;5071643;28;20270;-80
2022/09/14 05:44:41;;;;;;;1.23;0.53;;;19.00;99.90;;;;;;5072589;28;21029;-80
2022/09/14 05:47:06;;;;;;;0.53;0.53;;;19.10;99.90;;;;;;5073224;28;20193;-79
2022/09/14 05:49:32;;;;;;;0.20;0.20;;;19.10;99.90;;;;;;5075426;28;20608;-79
2022/09/14 05:51:57;;;;;;;0.50;0.50;;;19.10;99.90;;;;;;5071767;28;20207;-80
2022/09/14 05:54:23;;;;;;;0.40;0.30;;;19.10;99.90;;;;;;5076266;28;20189;-80
2022/09/14 05:56:48;;;;;;;1.07;0.97;;;19.10;99.90;;;;;;5072963;28;20188;-79
2022/09/14 05:59:14;;;;;;;0.20;0.20;;;19.00;99.90;;;;;;5080002;28;20177;-79
2022/09/14 06:01:40;;;;;;;0.57;0.57;;;19.00;99.90;;;;;;5072238;28;20287;-80
2022/09/14 06:04:05;;;;;;;0.80;0.80;;;19.00;99.90;;;;;;5072266;28;20295;-80
2022/09/14 06:06:32;;;;;;;0.80;0.80;;;18.70;99.90;;;;;;5073709;28;20554;-79
2022/09/14 06:08:58;;;;;;;1.00;0.63;;;18.60;99.90;;;;;;5074723;28;22606;-80
2022/09/14 06:11:27;;;;;;;0.33;0.33;;;18.70;99.90;;;;;;5075105;28;20194;-80
2022/09/14 06:13:53;;;;;;;0.23;0.23;;;18.80;99.90;;;;;;5073212;28;20603;-79
2022/09/14 06:16:20;;;;;;;0.87;0.63;;;18.90;99.90;;;;;;5073362;28;20199;-79
2022/09/14 06:18:47;;;;;;;0.60;0.60;;;18.80;99.90;;;;;;5075023;28;20215;-80
2022/09/14 06:21:15;;;;;;;0.67;0.67;;;18.60;99.90;;;;;;5073864;28;20242;-79
2022/09/14 06:23:42;;;;;;;0.40;0.40;;;18.60;99.90;;;;;;5076342;28;20234;-80
2022/09/14 06:26:08;;;;;;;1.63;1.43;;;18.60;99.90;;;;;;5074699;28;20262;-80
2022/09/14 06:28:34;;;;;;;1.13;0.83;;;18.60;99.90;;;;;;5073718;28;20222;-79
2022/09/14 06:31:03;;;;;;;1.53;1.43;;;18.50;99.90;;;;;;5074444;28;20204;-80
2022/09/14 06:33:29;;;;;;;1.63;1.37;;;18.40;99.90;;;;;;5074191;28;20306;-79
2022/09/14 06:35:57;;;;;;;1.80;0.97;;;18.50;99.90;;;;;;5074544;28;20296;-80
2022/09/14 06:38:23;;;;;;;1.30;1.17;;;18.40;99.90;;;;;;5075439;28;20216;-79
2022/09/14 06:40:58;;;;;;;1.10;0.90;;;18.30;99.90;;;;;;5077003;28;20228;-80
2022/09/14 06:43:26;;;;;;;0.97;0.53;;;18.60;99.90;;;;;;5073289;28;20215;-79
2022/09/14 06:46:05;;;;;;;0.17;0.17;;;18.80;99.90;;;;;;5072079;28;20185;-80
2022/09/14 06:48:35;;;;;;;0.77;0.70;;;18.90;99.90;;;;;;5075225;28;20270;-79
2022/09/14 06:51:12;;;;;;;0.20;0.20;;;19.10;99.90;;;;;;5073811;28;20219;-80
2022/09/14 06:53:38;;;;;;;3.07;0.53;;;19.10;99.90;;;;;;5075276;28;20217;-80
2022/09/14 06:56:04;;;;;;;0.33;0.33;;;19.00;99.90;;;;;;5072921;28;20184;-80
2022/09/14 06:58:29;;;;;;;1.00;0.90;;;19.10;99.90;;;;;;5076209;28;20188;-81
2022/09/14 07:01:00;;;;;;;1.07;1.00;;;19.00;99.90;;;;;;5073588;28;20669;-80
2022/09/14 07:03:26;;;;;;;0.73;0.73;;;18.80;99.90;;;;;;5075728;28;20212;-80
2022/09/14 07:05:51;;;;;;;0.57;0.53;;;18.60;99.90;;;;;;5074242;28;20177;-80
2022/09/14 07:08:17;;;;;;;0.80;0.80;;;18.40;99.90;;;;;;5073006;28;20204;-80
2022/09/14 07:10:43;;;;;;;0.97;0.73;;;18.70;99.90;;;;;;5075987;28;20193;-81
2022/09/14 07:13:08;;;;;;;1.93;0.80;;;18.80;99.90;;;;;;5075437;28;20218;-81
2022/09/14 07:15:34;;;;;;;2.93;1.37;;;18.80;99.90;;;;;;5074672;28;20184;-80
2022/09/14 07:17:59;;;;;;;1.00;1.00;;;18.50;99.90;;;;;;5067948;28;20201;-81
2022/09/14 07:20:25;;;;;;;0.87;0.77;;;18.40;99.90;;;;;;5074181;28;20668;-84
2022/09/14 07:22:50;;;;;;;0.70;0.70;;;18.60;99.90;;;;;;5076588;28;20229;-83
2022/09/14 07:25:16;;;;;;;0.43;0.43;;;18.80;99.90;;;;;;5075986;28;20242;-85
2022/09/14 07:27:42;;;;;;;0.70;0.70;;;18.70;99.90;;;;;;5079861;28;20195;-84
2022/09/14 07:30:08;;;;;;;0.87;0.70;;;18.80;99.90;;;;;;5078945;28;20718;-82
2022/09/14 07:32:33;;;;;;;0.63;0.63;;;19.10;99.90;;;;;;5075911;28;20224;-82
2022/09/14 07:34:59;;;;;;;0.70;0.70;;;19.20;99.90;;;;;;5077641;28;20196;-82
2022/09/14 07:37:25;;;;;;;1.00;0.83;;;19.40;99.90;;;;;;5078328;28;20184;-82
2022/09/14 07:39:50;;;;;;;0.47;0.47;;;19.30;99.90;;;;;;5078822;28;20188;-82
2022/09/14 07:42:16;;;;;;;0.47;0.47;;;19.40;99.90;;;;;;5080198;28;20252;-82
2022/09/14 07:44:41;;;;;;;0.60;0.60;;;19.30;99.90;;;;;;5073930;28;20192;-80
2022/09/14 07:47:08;;;;;;;0.90;0.90;;;19.10;99.90;;;;;;5073923;28;20676;-79
2022/09/14 07:49:33;;;;;;;0.20;0.20;;;18.90;99.90;;;;;;5069270;28;20258;-78
2022/09/14 07:51:59;;;;;;;0.47;0.47;;;19.10;99.90;;;;;;5071467;28;20980;-79
2022/09/14 07:54:25;;;;;;;3.43;0.70;;;19.20;99.90;;;;;;5074397;28;20206;-79
2022/09/14 07:56:51;;;;;;;0.50;0.40;;;19.20;99.90;;;;;;5072073;28;20185;-79
2022/09/14 07:59:17;;;;;;;0.43;0.43;;;19.10;99.90;;;;;;5071627;28;20234;-79
2022/09/14 08:01:42;;;;;;;0.70;0.50;;;19.30;99.90;;;;;;5071737;28;20187;-79
2022/09/14 08:04:08;;;;;;;0.37;0.37;;;19.40;99.90;;;;;;5071723;28;20634;-79
2022/09/14 08:06:35;;;;;;;0.93;0.43;;;19.50;99.90;;;;;;5074816;28;20274;-79
2022/09/14 08:09:06;;;;;;;0.50;0.50;;;19.50;99.90;;;;;;5070733;28;20227;-78
2022/09/14 08:11:34;;;;;;;0.30;0.30;;;19.50;99.90;;;;;;5074730;28;20184;-79
2022/09/14 08:14:08;;;;;;;0.70;0.53;;;19.50;99.90;;;;;;5072080;28;20196;-79
2022/09/14 08:16:34;;;;;;;0.47;0.30;;;19.60;99.90;;;;;;5072881;28;20171;-79
2022/09/14 08:19:02;;;;;;;1.57;0.90;;;19.60;99.90;;;;;;5069056;28;20602;-79
2022/09/14 08:21:30;;;;;;;0.83;0.50;;;19.70;99.90;;;;;;5072757;28;20200;-79
2022/09/14 08:23:56;;;;;;;0.70;0.70;;;19.70;99.90;;;;;;5071740;28;20250;-78
2022/09/14 08:26:23;;;;;;;0.53;0.47;;;19.80;99.90;;;;;;5074524;28;20188;-79
2022/09/14 08:28:50;;;;;;;0.50;0.43;;;19.80;99.90;;;;;;5076515;28;20650;-79
2022/09/14 08:31:19;;;;;;;0.63;0.63;;;19.90;99.90;;;;;;5074223;28;20177;-79
2022/09/14 08:33:48;;;;;;;0.40;0.40;;;20.00;99.90;;;;;;5073784;28;20978;-79
2022/09/14 08:36:16;;;;;;;0.77;0.60;;;20.10;99.90;;;;;;5074623;28;20649;-79
2022/09/14 08:38:42;;;;;;;0.80;0.80;;;20.20;99.90;;;;;;5075530;28;20177;-79
2022/09/14 08:41:30;;;;;;;0.50;0.50;;;20.50;99.90;;;;;;5075429;28;20225;-78
2022/09/14 08:44:30;;;;;;;0.40;0.40;;;20.50;99.90;;;;;;5069358;28;20201;-79
2022/09/14 08:47:04;;;;;;;1.07;0.90;;;20.50;99.90;;;;;;5034613;28;20670;-79
2022/09/14 08:49:56;;;;;;;0.40;0.40;;;20.50;99.90;;;;;;5072874;28;20203;-79
2022/09/14 08:52:37;;;;;;;1.77;0.63;;;20.50;99.90;;;;;;5072944;28;20220;-80
2022/09/14 08:55:34;;;;;;;1.00;0.87;;;20.60;99.90;;;;;;5076308;28;20609;-79
2022/09/14 08:58:17;;;;;;;0.47;0.47;;;20.60;99.90;;;;;;5077689;28;20254;-79
2022/09/14 09:01:17;;;;;;;0.40;0.40;;;20.50;99.90;;;;;;5076807;28;20169;-80
2022/09/14 09:03:59;;;;;;;0.20;0.20;;;20.50;99.90;;;;;;5047016;28;20242;-79
2022/09/14 09:06:49;;;;;;;0.20;0.20;;;20.60;99.90;;;;;;5075336;28;20208;-79
2022/09/14 09:09:45;;;;;;;0.23;0.23;;;20.70;99.90;;;;;;5076245;28;20185;-79
2022/09/14 09:12:23;;;;;;;0.53;0.50;;;20.70;99.90;;;;;;5079250;28;20666;-80
2022/09/14 09:14:53;;;;;;;0.40;0.40;;;20.90;99.90;;;;;;5076569;28;20222;-80
2022/09/14 09:17:31;;;;;;;0.33;0.33;;;21.00;99.90;;;;;;5078009;28;20192;-80
2022/09/14 09:20:27;;;;;;;0.40;0.40;;;21.10;99.90;;;;;;5075646;28;20181;-79
2022/09/14 09:23:16;;;;;;;0.40;0.40;;;21.10;99.90;;;;;;5077261;28;20204;-80
2022/09/14 09:26:06;;;;;;;0.23;0.23;;;21.10;99.90;;;;;;5078348;28;20193;-80
2022/09/14 09:28:32;;;;;;;0.40;0.40;;;20.90;99.90;;;;;;5081215;28;20212;-80
2022/09/14 09:31:09;;;;;;;4.43;1.23;;;20.80;99.90;;;;;;5075562;28;20184;-79
2022/09/14 09:33:35;;;;;;;0.67;0.67;;;20.80;99.90;;;;;;5075137;28;20269;-80
2022/09/14 09:36:01;;;;;;;1.23;0.70;;;20.90;99.90;;;;;;5072612;28;20176;-80
2022/09/14 09:38:28;;;;;;;0.40;0.40;;;21.00;99.90;;;;;;5076288;28;20781;-80
2022/09/14 09:41:07;;;;;;;0.23;0.23;;;21.00;99.90;;;;;;5074048;28;21195;-80
2022/09/14 09:43:33;;;;;;;1.47;0.77;;;21.00;99.90;;;;;;5074689;28;20202;-79
2022/09/14 09:46:01;;;;;;;0.30;0.30;;;21.10;99.90;;;;;;5073857;28;20196;-80
2022/09/14 09:48:36;;;;;;;0.40;0.33;;;21.10;99.90;;;;;;5074237;28;20192;-79
2022/09/14 09:51:14;;;;;;;0.47;0.40;;;21.00;99.90;;;;;;5073872;28;20223;-79
2022/09/14 09:53:49;;;;;;;0.40;0.40;;;21.00;99.90;;;;;;5072888;28;20590;-79
2022/09/14 09:56:27;;;;;;;0.80;0.60;;;21.10;99.90;;;;;;5076158;28;20683;-79
2022/09/14 09:58:53;;;;;;;0.47;0.30;;;21.10;99.90;;;;;;5076231;28;20586;-80
2022/09/14 10:01:30;;;;;;;0.77;0.43;;;21.10;99.90;;;;;;5079267;28;20180;-80
2022/09/14 10:04:00;;;;;;;0.53;0.53;;;21.10;99.90;;;;;;5077518;28;20730;-80
2022/09/14 10:06:26;;;;;;;0.30;0.30;;;21.20;99.90;;;;;;5074408;28;20208;-80
2022/09/14 10:08:53;;;;;;;0.50;0.50;;;21.20;99.90;;;;;;5080506;28;20658;-80
2022/09/14 10:11:33;;;;;;;0.20;0.20;;;21.20;99.90;;;;;;5080377;28;20230;-80
2022/09/14 10:13:59;;;;;;;0.97;0.50;;;21.30;99.90;;;;;;5075887;28;20211;-81
2022/09/14 10:16:31;;;;;;;0.40;0.40;;;21.10;99.90;;;;;;5075791;28;20200;-80
2022/09/14 10:18:58;;;;;;;0.87;0.40;;;21.10;99.90;;;;;;5078398;28;20193;-81
2022/09/14 10:21:24;;;;;;;0.30;0.30;;;21.10;99.90;;;;;;5081539;28;20184;-81
2022/09/14 10:24:04;;;;;;;0.40;0.40;;;21.20;99.90;;;;;;5077335;28;20215;-80
2022/09/14 10:26:34;;;;;;;0.23;0.23;;;21.20;99.90;;;;;;5076324;28;20196;-83
2022/09/14 10:29:31;;;;;;;1.53;0.50;;;21.20;99.90;;;;;;5072893;28;21164;-81
2022/09/14 10:32:04;;;;;;;0.30;0.30;;;21.40;99.90;;;;;;5080251;28;20261;-80
2022/09/14 10:34:29;;;;;;;0.43;0.43;;;21.40;99.90;;;;;;5079557;28;20189;-80
2022/09/14 10:37:11;;;;;;;0.60;0.60;;;21.00;99.90;;;;;;5078644;28;20238;-81
2022/09/14 10:40:11;;;;;;;0.60;0.53;;;20.60;99.90;;;;;;5079548;28;20810;-80
2022/09/14 10:42:43;;;;;;;0.40;0.40;;;20.80;99.90;;;;;;5080820;28;20270;-80
2022/09/14 10:45:30;;;;;;;0.40;0.40;;;21.10;99.90;;;;;;5079699;28;20180;-80
2022/09/14 10:48:01;;;;;;;0.40;0.40;;;21.20;99.90;;;;;;5078315;28;20199;-80
2022/09/14 10:50:26;;;;;;;0.50;0.30;;;21.50;99.90;;;;;;5081985;28;20242;-80
2022/09/14 10:53:10;;;;;;;0.50;0.40;;;21.70;99.90;;;;;;5078920;28;20212;-81
2022/09/14 10:55:49;;;;;;;0.30;0.30;;;21.80;99.90;;;;;;5080840;28;20292;-80
2022/09/14 10:58:29;;;;;;;0.73;0.30;;;21.70;99.90;;;;;;5079758;28;20229;-80
2022/09/14 11:01:31;;;;;;;0.23;0.23;;;21.80;99.90;;;;;;5080866;28;20177;-81
2022/09/14 11:04:04;;;;;;;1.17;0.60;;;21.90;99.90;;;;;;5079437;28;20212;-81
2022/09/14 11:06:59;;;;;;;0.30;0.30;;;22.00;99.90;;;;;;5077499;28;20252;-81
2022/09/14 11:09:46;;;;;;;0.40;0.40;;;22.00;99.90;;;;;;5079422;28;20192;-80
2022/09/14 11:12:39;;;;;;;0.40;0.40;;;22.00;99.90;;;;;;5080773;28;21280;-81
2022/09/14 11:15:22;;;;;;;0.57;0.43;;;21.90;99.90;;;;;;5086163;28;20653;-80
2022/09/14 11:18:05;;;;;;;0.70;0.63;;;21.90;99.90;;;;;;5076852;28;20268;-81
2022/09/14 11:21:14;;;;;;;0.37;0.37;;;21.80;99.90;;;;;;5078222;28;20208;-80
2022/09/14 11:23:54;;;;;;;0.13;0.13;;;21.80;99.90;;;;;;5077103;28;20207;-81
2022/09/14 11:26:39;;;;;;;0.53;0.50;;;21.90;99.90;;;;;;5075013;28;20242;-82
2022/09/14 11:29:17;;;;;;;0.20;0.20;;;22.00;99.90;;;;;;5074919;28;21001;-80
2022/09/14 11:31:55;;;;;;;0.43;0.43;;;22.30;99.90;;;;;;5077594;28;20198;-80
2022/09/14 11:34:26;;;;;;;0.40;0.40;;;22.50;99.90;;;;;;5078843;28;20221;-80
2022/09/14 11:36:57;;;;;;;0.37;0.37;;;22.70;99.90;;;;;;5080014;28;20185;-81
2022/09/14 11:39:27;;;;;;;0.57;0.30;;;22.80;99.90;;;;;;5087367;28;20261;-80
2022/09/14 11:42:04;;;;;;;0.27;0.23;;;22.90;99.90;;;;;;5082221;28;20185;-80
2022/09/14 11:44:41;;;;;;;0.20;0.20;;;23.10;99.90;;;;;;5078867;28;20266;-80
2022/09/14 11:47:17;;;;;;;0.40;0.40;;;23.10;99.90;;;;;;5081451;28;20199;-80
2022/09/14 11:49:59;;;;;;;0.47;0.47;;;22.80;99.90;;;;;;5077664;28;20201;-80
2022/09/14 11:52:28;;;;;;;0.30;0.30;;;22.90;99.90;;;;;;5077898;28;20219;-81
2022/09/14 11:54:55;;;;;;;0.30;0.30;;;23.00;99.90;;;;;;5080624;28;20173;-80
2022/09/14 11:57:24;;;;;;;1.00;0.57;;;23.10;99.90;;;;;;5081447;28;20181;-80
2022/09/14 11:59:53;;;;;;;0.73;0.60;;;23.40;99.90;;;;;;5080098;28;20180;-80
2022/09/14 12:02:21;;;;;;;0.97;0.97;;;23.50;99.90;;;;;;5080255;28;20205;-80
2022/09/14 12:05:05;;;;;;;0.50;0.40;;;23.50;99.90;;;;;;5078799;28;20665;-80
2022/09/14 12:07:46;;;;;;;0.50;0.50;;;23.50;99.90;;;;;;5080066;28;20198;-80
2022/09/14 12:10:15;;;;;;;0.63;0.60;;;23.40;99.90;;;;;;5078649;28;20188;-80
2022/09/14 12:12:48;;;;;;;0.90;0.60;;;23.30;99.90;;;;;;5077655;28;20218;-81
2022/09/14 12:15:22;;;;;;;0.67;0.67;;;23.20;99.90;;;;;;5080157;28;20176;-80
2022/09/14 12:17:49;;;;;;;0.80;0.70;;;23.30;99.90;;;;;;5079614;28;20556;-81
2022/09/14 12:20:27;;;;;;;0.70;0.63;;;23.30;99.90;;;;;;5075908;28;20180;-80
2022/09/14 12:23:21;;;;;;;0.60;0.60;;;23.20;99.90;;;;;;5078597;28;20295;-80
2022/09/14 12:26:11;;;;;;;0.50;0.50;;;23.10;99.90;;;;;;5072937;28;20192;-80
2022/09/14 12:28:36;;;;;;;1.60;0.60;;;22.90;99.90;;;;;;5074427;28;20721;-80
2022/09/14 12:31:02;;;;;;;0.50;0.50;;;22.70;99.90;;;;;;5075670;28;20197;-80
2022/09/14 12:33:31;;;;;;;1.00;0.83;;;22.70;99.90;;;;;;5072455;28;20231;-81
2022/09/14 12:36:10;;;;;;;1.47;1.23;;;22.80;99.90;;;;;;5075757;28;20722;-80
2022/09/14 12:38:36;;;;;;;0.40;0.37;;;22.70;99.90;;;;;;5072002;28;20259;-81
2022/09/14 12:41:34;;;;;;;4.40;0.97;;;22.60;99.90;;;;;;5071582;28;20260;-81
2022/09/14 12:44:00;;;;;;;1.30;0.70;;;22.60;99.90;;;;;;5076914;28;21101;-81
2022/09/14 12:46:25;;;;;;;0.20;0.20;;;22.50;99.90;;;;;;5077222;28;20199;-82
2022/09/14 12:49:02;;;;;;;0.50;0.50;;;22.50;99.90;;;;;;5076888;28;20563;-81
2022/09/14 12:51:31;;;;;;;1.10;1.10;;;22.50;99.90;;;;;;5073518;28;20191;-81
2022/09/14 12:53:57;;;;;;;0.83;0.70;;;22.60;99.90;;;;;;5073998;28;20216;-81
2022/09/14 12:56:39;;;;;;;0.83;0.73;;;22.60;99.90;;;;;;5074116;28;20193;-81
2022/09/14 12:59:25;;;;;;;0.33;0.33;;;22.50;99.90;;;;;;5074602;28;20215;-81
2022/09/14 13:02:07;;;;;;;0.70;0.70;;;22.50;99.90;;;;;;5075843;28;20177;-81
2022/09/14 13:04:36;;;;;;;0.67;0.67;;;22.50;99.90;;;;;;5075601;28;20614;-81
2022/09/14 13:07:05;;;;;;;0.80;0.70;;;22.50;99.90;;;;;;5078208;28;20185;-81
2022/09/14 13:09:31;;;;;;;0.43;0.43;;;22.40;99.90;;;;;;5074546;28;20220;-81